Azamara Quest — V7DM6 — position and weather

sailwx.info

Track history (hours):
 
Tides and Currents Weather Stations Pressure Air Temp Water Temp Dewpoint Dewpoint Depression Visibility Wind Speed Wind Dir Waves Ship Positions

Azamara Quest

Last reported at 2017-Apr-30 14:31 UTC. Time now 2017-Apr-30 14:52 UTC.
Position N 50°24' E 000°30'.

Length 184 m; draft 8.5 m.

Type: Ship. MMSI: 538005401.

Date/timePositionNaut miles runAvg speedWind from/ knotsBaromVisibWave heightAir tempDewpointWater temp
2017-Apr-30 14:31N 50°24' E 000°30'1313.3
2017-Apr-30 13:30N 50°21' E 000°09'714.0
2017-Apr-30 13:00N 50°19' W 000°01'714.6
2017-Apr-30 12:30N 50°17' W 000°12'815.5
2017-Apr-30 12:00N 50°15' W 000°24'916.0
2017-Apr-30 11:28N 50°13' W 000°37'716.4
2017-Apr-30 11:01N 50°11' W 000°48'3416.3
2017-Apr-30 08:57N 50°02' W 001°39'715.2
2017-Apr-30 08:31N 50°01' W 001°49'814.5
2017-Apr-30 07:58N 49°58' W 002°01'613.6
2017-Apr-30 07:30N 49°57' W 002°10'712.7
2017-Apr-30 06:59N 49°55' W 002°20'712.1
2017-Apr-30 06:25N 49°53' W 002°30'611.7
2017-Apr-30 05:56N 49°52' W 002°39'511.6
2017-Apr-30 05:30N 49°51' W 002°46'611.1
2017-Apr-30 05:00N 49°49' W 002°54'611.1
2017-Apr-30 04:30N 49°46' W 003°02'511.1
2017-Apr-30 04:00N 49°43' W 003°09'611.1
2017-Apr-30 03:30N 49°41' W 003°17'611.2
2017-Apr-30 03:00N 49°38' W 003°24'611.3
2017-Apr-30 02:30N 49°35' W 003°31'611.3
2017-Apr-30 02:00N 49°32' W 003°39'811.2
2017-Apr-30 01:15N 49°28' W 003°50'611.3
2017-Apr-30 00:43N 49°25' W 003°59'5512.5
2017-Apr-29 20:18N 48°57' W 005°11'814.0
2017-Apr-29 19:43N 48°53' W 005°22'314.1
2017-Apr-29 19:30N 48°51' W 005°26'25012.1
2017-Apr-28 22:47N 45°38' W 001°32'413.7
2017-Apr-28 22:30N 45°36' W 001°27'611.9
2017-Apr-28 22:00N 45°37' W 001°19'815.7
2017-Apr-28 21:30N 45°39' W 001°08'816.3
2017-Apr-28 21:00N 45°32' W 001°01'815.1
2017-Apr-28 20:30N 45°27' W 000°53'612.7
2017-Apr-28 20:00N 45°22' W 000°48'713.6
2017-Apr-28 19:30N 45°15' W 000°45'2 0.1
2017-Apr-27 15:40N 45°18' W 000°46'314.5
2017-Apr-27 15:28N 45°20' W 000°47'715.1
2017-Apr-27 15:00N 45°26' W 000°53'1716.5
2017-Apr-27 14:00N 45°39' W 001°08'714.9
2017-Apr-27 13:30N 45°38' W 001°19'5 9.7
2017-Apr-27 13:00N 45°36' W 001°25'2 2.9
2017-Apr-27 12:18N 45°36' W 001°28'0 0.1
2017-Apr-27 11:00N 45°36' W 001°28'0 0.1
2017-Apr-27 10:24N 45°36' W 001°28'0 0.1
2017-Apr-27 09:42N 45°36' W 001°28'0 0.1
2017-Apr-27 09:21N 45°36' W 001°28'0 0.0
2017-Apr-27 09:00N 45°36' W 001°28'0 0.0
2017-Apr-27 08:30N 45°36' W 001°28'0 0.0
2017-Apr-27 08:00N 45°36' W 001°28'0 0.0
2017-Apr-27 03:48N 45°36' W 001°28'0 0.1
2017-Apr-27 01:24N 45°36' W 001°28'0 0.0
2017-Apr-27 00:57N 45°36' W 001°28'0 0.0
2017-Apr-27 00:24N 45°36' W 001°28'0 0.1
2017-Apr-26 23:45N 45°36' W 001°28'0 0.1
2017-Apr-26 23:30N 45°36' W 001°28'0 0.1
2017-Apr-26 23:00N 45°36' W 001°28'0 0.2
2017-Apr-26 22:30N 45°36' W 001°28'0 0.1
2017-Apr-26 21:54N 45°36' W 001°28'0 0.1
2017-Apr-26 21:30N 45°36' W 001°28'0 0.1
2017-Apr-26 20:48N 45°36' W 001°28'0 0.0
2017-Apr-26 16:42N 45°36' W 001°28'0 0.1
2017-Apr-26 16:30N 45°36' W 001°28'0 0.0
2017-Apr-26 15:54N 45°36' W 001°28'0 0.0
2017-Apr-26 14:09N 45°36' W 001°28'0 0.1
2017-Apr-26 12:09N 45°36' W 001°28'0 0.2
2017-Apr-26 12:00N 45°36' W 001°28'2 3.5
2017-Apr-26 11:29N 45°36' W 001°31'5 9.5
2017-Apr-26 10:58N 45°36' W 001°38'  
Track history (hours):
 
Tides and Currents Weather Stations Pressure Air Temp Water Temp Dewpoint Dewpoint Depression Visibility Wind Speed Wind Dir Waves Ship Positions

Azamara Quest

Last reported at 2017-Apr-30 14:31 UTC. Time now 2017-Apr-30 14:52 UTC.
Position N 50°24' E 000°30'.

Length 184 m; draft 8.5 m.

Type: Ship. MMSI: 538005401.

Date/timePositionNaut miles runAvg speedWind from/ knotsBaromVisibWave heightAir tempDewpointWater temp
2017-Apr-30 14:31N 50°24' E 000°30'1313.3
2017-Apr-30 13:30N 50°21' E 000°09'714.0
2017-Apr-30 13:00N 50°19' W 000°01'714.6
2017-Apr-30 12:30N 50°17' W 000°12'815.5
2017-Apr-30 12:00N 50°15' W 000°24'916.0
2017-Apr-30 11:28N 50°13' W 000°37'716.4
2017-Apr-30 11:01N 50°11' W 000°48'3416.3
2017-Apr-30 08:57N 50°02' W 001°39'715.2
2017-Apr-30 08:31N 50°01' W 001°49'814.5
2017-Apr-30 07:58N 49°58' W 002°01'613.6
2017-Apr-30 07:30N 49°57' W 002°10'712.7
2017-Apr-30 06:59N 49°55' W 002°20'712.1
2017-Apr-30 06:25N 49°53' W 002°30'611.7
2017-Apr-30 05:56N 49°52' W 002°39'511.6
2017-Apr-30 05:30N 49°51' W 002°46'611.1
2017-Apr-30 05:00N 49°49' W 002°54'611.1
2017-Apr-30 04:30N 49°46' W 003°02'511.1
2017-Apr-30 04:00N 49°43' W 003°09'611.1
2017-Apr-30 03:30N 49°41' W 003°17'611.2
2017-Apr-30 03:00N 49°38' W 003°24'611.3
2017-Apr-30 02:30N 49°35' W 003°31'611.3
2017-Apr-30 02:00N 49°32' W 003°39'811.2
2017-Apr-30 01:15N 49°28' W 003°50'611.3
2017-Apr-30 00:43N 49°25' W 003°59'5512.5
2017-Apr-29 20:18N 48°57' W 005°11'814.0
2017-Apr-29 19:43N 48°53' W 005°22'314.1
2017-Apr-29 19:30N 48°51' W 005°26'25012.1
2017-Apr-28 22:47N 45°38' W 001°32'413.7
2017-Apr-28 22:30N 45°36' W 001°27'611.9
2017-Apr-28 22:00N 45°37' W 001°19'815.7
2017-Apr-28 21:30N 45°39' W 001°08'816.3
2017-Apr-28 21:00N 45°32' W 001°01'815.1
2017-Apr-28 20:30N 45°27' W 000°53'612.7
2017-Apr-28 20:00N 45°22' W 000°48'713.6
2017-Apr-28 19:30N 45°15' W 000°45'2 0.1
2017-Apr-27 15:40N 45°18' W 000°46'314.5
2017-Apr-27 15:28N 45°20' W 000°47'715.1
2017-Apr-27 15:00N 45°26' W 000°53'1716.5
2017-Apr-27 14:00N 45°39' W 001°08'714.9
2017-Apr-27 13:30N 45°38' W 001°19'5 9.7
2017-Apr-27 13:00N 45°36' W 001°25'2 2.9
2017-Apr-27 12:18N 45°36' W 001°28'0 0.1
2017-Apr-27 11:00N 45°36' W 001°28'0 0.1
2017-Apr-27 10:24N 45°36' W 001°28'0 0.1
2017-Apr-27 09:42N 45°36' W 001°28'0 0.1
2017-Apr-27 09:21N 45°36' W 001°28'0 0.0
2017-Apr-27 09:00N 45°36' W 001°28'0 0.0
2017-Apr-27 08:30N 45°36' W 001°28'0 0.0
2017-Apr-27 08:00N 45°36' W 001°28'0 0.0
2017-Apr-27 03:48N 45°36' W 001°28'0 0.1
2017-Apr-27 01:24N 45°36' W 001°28'0 0.0
2017-Apr-27 00:57N 45°36' W 001°28'0 0.0
2017-Apr-27 00:24N 45°36' W 001°28'0 0.1
2017-Apr-26 23:45N 45°36' W 001°28'0 0.1
2017-Apr-26 23:30N 45°36' W 001°28'0 0.1
2017-Apr-26 23:00N 45°36' W 001°28'0 0.2
2017-Apr-26 22:30N 45°36' W 001°28'0 0.1
2017-Apr-26 21:54N 45°36' W 001°28'0 0.1
2017-Apr-26 21:30N 45°36' W 001°28'0 0.1
2017-Apr-26 20:48N 45°36' W 001°28'0 0.0
2017-Apr-26 16:42N 45°36' W 001°28'0 0.1
2017-Apr-26 16:30N 45°36' W 001°28'0 0.0
2017-Apr-26 15:54N 45°36' W 001°28'0 0.0
2017-Apr-26 14:09N 45°36' W 001°28'0 0.1
2017-Apr-26 12:09N 45°36' W 001°28'0 0.2
2017-Apr-26 12:00N 45°36' W 001°28'2 3.5
2017-Apr-26 11:29N 45°36' W 001°31'5 9.5
2017-Apr-26 10:58N 45°36' W 001°38'  

Dump ship's entire track history